Open Full Screen Window  High Contrast Mode
Wind Gusting 00 knots
06
May 29, 2017 9:06 AM EDT
Weather Information
Wind Direction
  230 °
Wind Speed
  06 kt (7 mph)
Wind Gust
  00 kt (0 mph)
Altimeter
29.90 in
Visibility
10 SM
Temperature
19° C
66° F
Dewpoint
16° C
61° F
Humidity
83%
1hr Rain Fall
00.00 in.
24hr Rain Fall
00.23 in.
Sky Condition
Clear
VFR

METAR KDLZ 291306Z AUTO 23006KT 10SM CLR 19/16 A2990 RMK AO2

*Background is not an actual portrayal of the airport.